Time;durP1;ratioP1;P1;durP2;ratioP2;P2;SDS_P1;SDS_P2;PMS_P1;PMS_P2;Temp;Humidity;BMP_temperature;BMP_pressure;BME280_temperature;BME280_humidity;BME280_pressure;Samples;Min_cycle;Max_cycle;Signal;HPM_P1;HPM_P2
2023/12/07 00:00:37;;;;;;;14.88;10.75;;;3.60;99.90;;;;;;5034012;28;20053;-69
2023/12/07 00:03:06;;;;;;;12.82;10.77;;;3.60;99.90;;;;;;5033110;28;20056;-71
2023/12/07 00:05:33;;;;;;;14.02;11.35;;;3.60;99.90;;;;;;5032255;28;20057;-71
2023/12/07 00:07:59;;;;;;;15.68;11.07;;;3.60;99.90;;;;;;5034000;28;20046;-71
2023/12/07 00:10:24;;;;;;;13.32;11.13;;;3.60;99.90;;;;;;5033806;28;20048;-71
2023/12/07 00:12:50;;;;;;;14.55;10.63;;;3.70;99.90;;;;;;5033995;28;20146;-71
2023/12/07 00:15:16;;;;;;;12.95;10.88;;;3.50;99.90;;;;;;5016640;28;20045;-70
2023/12/07 00:17:42;;;;;;;17.40;12.20;;;3.60;99.90;;;;;;5032340;28;20510;-71
2023/12/07 00:20:08;;;;;;;12.65;10.73;;;3.60;99.90;;;;;;5033991;28;20501;-71
2023/12/07 00:22:34;;;;;;;12.70;10.80;;;3.60;99.90;;;;;;5032540;28;20200;-72
2023/12/07 00:25:00;;;;;;;12.85;10.73;;;3.60;99.90;;;;;;5033968;28;20266;-71
2023/12/07 00:27:25;;;;;;;12.40;10.25;;;3.70;99.90;;;;;;5033187;28;20116;-72
2023/12/07 00:29:51;;;;;;;15.32;10.85;;;3.80;99.90;;;;;;5033671;28;20060;-71
2023/12/07 00:32:17;;;;;;;14.38;10.73;;;3.70;99.90;;;;;;5032468;28;20057;-70
2023/12/07 00:34:43;;;;;;;13.38;11.07;;;3.60;99.90;;;;;;5015914;28;20461;-71
2023/12/07 00:37:09;;;;;;;11.15;10.02;;;3.70;99.90;;;;;;5033665;28;20128;-72
2023/12/07 00:39:36;;;;;;;13.30;10.85;;;3.60;99.90;;;;;;5031665;28;20061;-72
2023/12/07 00:42:02;;;;;;;13.32;10.02;;;3.60;99.90;;;;;;5033495;28;20041;-73
2023/12/07 00:44:28;;;;;;;12.18;9.95;;;3.60;99.90;;;;;;5015630;28;20049;-70
2023/12/07 00:46:54;;;;;;;13.13;10.48;;;3.60;99.90;;;;;;5032006;28;20081;-71
2023/12/07 00:49:20;;;;;;;16.00;10.38;;;3.60;99.90;;;;;;5032013;28;20045;-70
2023/12/07 00:51:45;;;;;;;13.88;11.00;;;3.60;99.90;;;;;;5032980;28;20049;-70
2023/12/07 00:54:11;;;;;;;15.07;10.48;;;3.50;99.90;;;;;;5033286;28;20045;-71
2023/12/07 00:56:37;;;;;;;15.50;10.25;;;3.50;99.90;;;;;;5032636;28;20050;-72
2023/12/07 00:59:03;;;;;;;11.60;9.80;;;3.50;99.90;;;;;;5033139;28;20042;-72
2023/12/07 01:01:28;;;;;;;12.57;10.43;;;3.50;99.90;;;;;;5031734;28;20407;-71
2023/12/07 01:03:54;;;;;;;12.77;10.15;;;3.60;99.90;;;;;;5032085;28;20502;-71
2023/12/07 01:06:20;;;;;;;16.85;10.88;;;3.50;99.90;;;;;;5031826;28;20052;-71
2023/12/07 01:08:46;;;;;;;13.45;10.20;;;3.50;99.90;;;;;;5032608;28;20491;-71
2023/12/07 01:11:11;;;;;;;12.05;9.95;;;3.50;99.90;;;;;;5032926;28;20045;-72
2023/12/07 01:13:37;;;;;;;13.77;10.57;;;3.50;99.90;;;;;;5031205;28;20045;-72
2023/12/07 01:16:03;;;;;;;12.15;9.80;;;3.50;99.90;;;;;;5033095;28;20053;-71
2023/12/07 01:18:28;;;;;;;14.57;10.73;;;3.50;99.90;;;;;;5033999;28;20037;-72
2023/12/07 01:20:54;;;;;;;13.90;9.93;;;4.10;99.90;;;;;;5034264;28;20081;-71
2023/12/07 01:23:20;;;;;;;17.02;10.63;;;3.60;99.90;;;;;;5033475;28;20057;-72
2023/12/07 01:25:45;;;;;;;14.10;10.43;;;3.50;99.90;;;;;;5032098;28;20045;-72
2023/12/07 01:28:11;;;;;;;11.55;9.13;;;3.60;99.90;;;;;;5033565;28;20041;-72
2023/12/07 01:30:37;;;;;;;11.95;9.70;;;3.70;99.90;;;;;;5032816;28;20053;-71
2023/12/07 01:33:03;;;;;;;13.05;9.60;;;3.50;99.90;;;;;;5032382;28;20037;-72
2023/12/07 01:35:28;;;;;;;11.80;9.70;;;4.00;99.90;;;;;;5016338;28;20136;-72
2023/12/07 01:37:54;;;;;;;12.90;10.25;;;3.50;99.90;;;;;;5033141;28;20042;-72
2023/12/07 01:40:20;;;;;;;14.68;10.40;;;3.50;99.90;;;;;;5033184;28;20049;-71
2023/12/07 01:42:51;;;;;;;12.45;10.02;;;3.50;99.90;;;;;;5032793;28;20056;-72
2023/12/07 01:45:16;;;;;;;13.05;10.15;;;3.50;99.90;;;;;;5031773;28;20081;-72
2023/12/07 01:47:43;;;;;;;13.70;10.55;;;3.50;99.90;;;;;;5014960;28;20085;-73
2023/12/07 01:50:10;;;;;;;13.65;9.93;;;3.50;99.90;;;;;;5033131;28;20158;-73
2023/12/07 01:52:42;;;;;;;16.45;10.65;;;3.50;99.90;;;;;;5032848;28;20175;-73
2023/12/07 01:55:10;;;;;;;15.20;10.73;;;3.50;99.90;;;;;;5032787;28;20053;-72
2023/12/07 01:57:36;;;;;;;12.95;10.25;;;3.50;99.90;;;;;;5031093;28;20441;-72
2023/12/07 02:00:03;;;;;;;13.18;10.32;;;3.50;99.90;;;;;;5032586;28;20045;-73
2023/12/07 02:02:30;;;;;;;13.52;9.93;;;3.50;99.90;;;;;;5015063;28;20053;-73
2023/12/07 02:04:56;;;;;;;14.43;10.07;;;3.50;99.90;;;;;;5032073;28;20471;-72
2023/12/07 02:07:23;;;;;;;15.13;10.07;;;3.80;99.90;;;;;;5031533;28;20042;-73
2023/12/07 02:09:49;;;;;;;12.77;10.18;;;3.50;99.90;;;;;;5031360;28;20553;-73
2023/12/07 02:12:15;;;;;;;14.23;10.10;;;3.50;99.90;;;;;;5033415;28;20056;-72
2023/12/07 02:14:41;;;;;;;14.57;9.52;;;3.50;99.90;;;;;;5015074;28;20041;-72
2023/12/07 02:17:16;;;;;;;13.45;9.70;;;3.50;99.90;;;;;;5032391;28;20092;-73
2023/12/07 02:20:04;;;;;;;11.52;9.68;;;3.50;99.90;;;;;;5032483;28;20085;-73
2023/12/07 02:22:37;;;;;;;12.77;9.60;;;3.40;99.90;;;;;;5031895;28;20372;-73
2023/12/07 02:25:03;;;;;;;10.85;9.55;;;3.40;99.90;;;;;;5032011;28;20053;-72
2023/12/07 02:27:40;;;;;;;12.05;9.50;;;3.40;99.90;;;;;;5032976;28;20128;-72
2023/12/07 02:30:08;;;;;;;15.07;9.88;;;3.40;99.90;;;;;;5036802;28;20053;-72
2023/12/07 02:32:38;;;;;;;13.68;9.70;;;3.40;99.90;;;;;;5035438;28;20045;-71
2023/12/07 02:35:07;;;;;;;29.92;10.32;;;3.50;99.90;;;;;;5018837;28;20049;-71
2023/12/07 02:37:40;;;;;;;13.07;9.40;;;3.50;99.90;;;;;;5035808;28;20507;-72
2023/12/07 02:40:10;;;;;;;12.25;9.30;;;3.50;99.90;;;;;;5018353;28;20056;-72
2023/12/07 02:42:38;;;;;;;14.10;10.02;;;3.50;99.90;;;;;;5034717;28;20053;-73
2023/12/07 02:45:04;;;;;;;11.45;8.88;;;3.40;99.90;;;;;;5035845;28;20045;-72
2023/12/07 02:47:30;;;;;;;10.80;9.05;;;3.40;99.90;;;;;;5034899;28;20038;-73
2023/12/07 02:49:56;;;;;;;12.20;9.02;;;3.40;99.90;;;;;;5036072;28;20094;-73
2023/12/07 02:52:22;;;;;;;12.70;9.73;;;3.40;99.90;;;;;;5036362;28;20132;-72
2023/12/07 02:54:48;;;;;;;15.52;9.95;;;3.40;99.90;;;;;;5035721;28;20392;-72
2023/12/07 02:57:14;;;;;;;12.90;9.25;;;3.40;99.90;;;;;;5035714;28;20468;-73
2023/12/07 02:59:40;;;;;;;15.30;8.90;;;3.40;99.90;;;;;;5018458;28;20046;-73
2023/12/07 03:02:06;;;;;;;10.52;8.05;;;3.40;99.90;;;;;;5035635;28;20049;-72
2023/12/07 03:04:32;;;;;;;16.20;8.48;;;3.40;99.90;;;;;;5034579;28;20063;-73
2023/12/07 03:06:58;;;;;;;11.32;8.70;;;3.40;99.90;;;;;;5035127;28;20095;-73
2023/12/07 03:09:24;;;;;;;13.77;9.27;;;3.40;99.90;;;;;;5035542;28;20041;-72
2023/12/07 03:11:50;;;;;;;12.50;8.93;;;3.40;99.90;;;;;;5035424;28;20048;-73
2023/12/07 03:14:16;;;;;;;11.73;8.63;;;3.50;99.90;;;;;;5035367;28;20049;-72
2023/12/07 03:16:42;;;;;;;10.60;8.38;;;3.60;99.90;;;;;;5034661;28;20056;-73
2023/12/07 03:19:08;;;;;;;11.65;8.00;;;3.40;99.90;;;;;;5035774;28;20038;-72
2023/12/07 03:21:33;;;;;;;12.80;8.85;;;3.40;99.90;;;;;;5034493;28;20546;-72
2023/12/07 03:23:59;;;;;;;11.73;8.40;;;3.40;99.90;;;;;;5033531;28;20126;-73
2023/12/07 03:26:25;;;;;;;11.18;8.18;;;3.60;99.90;;;;;;5035346;28;20475;-72
2023/12/07 03:28:51;;;;;;;10.88;8.30;;;3.60;99.90;;;;;;5035013;28;20445;-72
2023/12/07 03:31:16;;;;;;;10.93;8.60;;;3.40;99.90;;;;;;5034326;28;20132;-72
2023/12/07 03:33:42;;;;;;;10.43;8.35;;;3.60;99.90;;;;;;5034171;28;20045;-72
2023/12/07 03:36:11;;;;;;;13.13;8.32;;;3.40;99.90;;;;;;5034744;28;20405;-72
2023/12/07 03:38:37;;;;;;;10.02;7.60;;;3.40;99.90;;;;;;5032319;28;20041;-72
2023/12/07 03:41:02;;;;;;;9.13;7.90;;;3.40;99.90;;;;;;5035135;28;20049;-72
2023/12/07 03:43:28;;;;;;;12.35;8.30;;;3.40;99.90;;;;;;5034883;28;20050;-73
2023/12/07 03:45:54;;;;;;;11.07;7.80;;;3.40;99.90;;;;;;5034773;28;20053;-72
2023/12/07 03:48:19;;;;;;;11.02;7.65;;;3.40;99.90;;;;;;5034868;28;20080;-72
2023/12/07 03:50:45;;;;;;;12.50;7.93;;;3.40;99.90;;;;;;5033959;28;20057;-72
2023/12/07 03:53:12;;;;;;;11.30;8.00;;;3.40;99.90;;;;;;5034738;28;20053;-72
2023/12/07 03:55:38;;;;;;;9.60;7.72;;;3.50;99.90;;;;;;5017048;28;20053;-72
2023/12/07 03:58:04;;;;;;;11.23;8.00;;;3.50;99.90;;;;;;5034442;28;20087;-73
2023/12/07 04:00:32;;;;;;;10.63;7.88;;;3.50;99.90;;;;;;5033637;28;20045;-73
2023/12/07 04:02:58;;;;;;;11.38;8.52;;;3.50;99.90;;;;;;5017294;28;20083;-73
2023/12/07 04:05:24;;;;;;;11.68;8.60;;;3.80;99.90;;;;;;5017785;28;20038;-72
2023/12/07 04:07:49;;;;;;;12.52;8.07;;;3.50;99.90;;;;;;5034354;28;20505;-73
2023/12/07 04:10:15;;;;;;;11.25;7.93;;;3.90;99.90;;;;;;5033448;28;20435;-73
2023/12/07 04:12:41;;;;;;;11.00;8.02;;;3.50;99.90;;;;;;5034421;28;20132;-72
2023/12/07 04:15:07;;;;;;;11.02;8.50;;;3.50;99.90;;;;;;5034356;28;20088;-72
2023/12/07 04:17:33;;;;;;;13.18;8.07;;;3.50;99.90;;;;;;5033894;28;20614;-73
2023/12/07 04:19:59;;;;;;;11.55;8.63;;;3.50;99.90;;;;;;5034145;28;20080;-72
2023/12/07 04:22:24;;;;;;;11.23;8.55;;;3.50;99.90;;;;;;5034159;28;20372;-72
2023/12/07 04:24:50;;;;;;;10.65;8.35;;;3.50;99.90;;;;;;5016797;28;20057;-72
2023/12/07 04:27:15;;;;;;;10.57;8.38;;;3.50;99.90;;;;;;5033967;28;20051;-73
2023/12/07 04:29:41;;;;;;;11.95;8.07;;;3.40;99.90;;;;;;5034258;28;20340;-73
2023/12/07 04:32:07;;;;;;;10.55;8.55;;;4.30;99.90;;;;;;5032647;28;20053;-72
2023/12/07 04:34:34;;;;;;;11.23;8.20;;;3.50;99.90;;;;;;5033057;28;20491;-73
2023/12/07 04:36:59;;;;;;;12.90;8.55;;;3.40;99.90;;;;;;5033589;28;20099;-72
2023/12/07 04:39:25;;;;;;;11.55;8.82;;;3.40;99.90;;;;;;5032566;28;20049;-73
2023/12/07 04:41:51;;;;;;;12.25;8.07;;;3.40;99.90;;;;;;5016291;28;20049;-73
2023/12/07 04:44:17;;;;;;;11.52;8.30;;;3.50;99.90;;;;;;5032390;28;20399;-72
2023/12/07 04:46:43;;;;;;;10.57;7.57;;;3.40;99.90;;;;;;5032691;28;20045;-72
2023/12/07 04:49:09;;;;;;;11.20;8.18;;;3.40;99.90;;;;;;5032006;28;20438;-72
2023/12/07 04:51:34;;;;;;;10.73;7.78;;;3.40;99.90;;;;;;5032627;28;20132;-73
2023/12/07 04:54:00;;;;;;;13.05;8.07;;;3.40;99.90;;;;;;5033014;28;20397;-72
2023/12/07 04:56:25;;;;;;;11.63;8.15;;;3.40;99.90;;;;;;5033168;28;20111;-72
2023/12/07 04:58:51;;;;;;;10.70;7.75;;;3.40;99.90;;;;;;5033354;28;20313;-72
2023/12/07 05:01:18;;;;;;;9.70;7.70;;;3.40;99.90;;;;;;5031886;28;20637;-74
2023/12/07 05:03:45;;;;;;;13.02;8.20;;;3.30;99.90;;;;;;5033602;28;20049;-73
2023/12/07 05:06:11;;;;;;;11.93;8.23;;;3.30;99.90;;;;;;5033070;28;20045;-73
2023/12/07 05:08:38;;;;;;;10.95;8.25;;;3.40;99.90;;;;;;4999668;28;20132;-72
2023/12/07 05:11:05;;;;;;;10.90;8.55;;;3.40;99.90;;;;;;5033553;28;20045;-73
2023/12/07 05:13:32;;;;;;;10.90;7.97;;;3.30;99.90;;;;;;5032397;28;20115;-73
2023/12/07 05:15:57;;;;;;;10.82;8.52;;;3.20;99.90;;;;;;5033426;28;20045;-73
2023/12/07 05:18:23;;;;;;;9.93;8.07;;;3.30;99.90;;;;;;5034238;28;20510;-73
2023/12/07 05:20:49;;;;;;;12.10;8.73;;;3.30;99.90;;;;;;5033947;28;20148;-73
2023/12/07 05:23:15;;;;;;;11.35;7.82;;;3.30;99.90;;;;;;5033009;28;20042;-72
2023/12/07 05:25:40;;;;;;;15.27;8.98;;;3.20;99.90;;;;;;5032915;28;20392;-73
2023/12/07 05:28:06;;;;;;;11.50;8.15;;;3.10;99.90;;;;;;5033012;28;20059;-72
2023/12/07 05:30:32;;;;;;;10.73;8.02;;;3.10;99.90;;;;;;5033582;28;20042;-73
2023/12/07 05:32:57;;;;;;;12.85;9.27;;;3.10;99.90;;;;;;5033054;28;20139;-72
2023/12/07 05:35:23;;;;;;;12.25;8.60;;;3.10;99.90;;;;;;5032782;28;20052;-73
2023/12/07 05:37:49;;;;;;;12.27;8.43;;;3.10;99.90;;;;;;5015693;28;20060;-73
2023/12/07 05:40:15;;;;;;;13.00;8.70;;;3.10;99.90;;;;;;5032600;28;20061;-73
2023/12/07 05:42:41;;;;;;;11.68;8.13;;;3.10;99.90;;;;;;5032897;28;20053;-74
2023/12/07 05:45:09;;;;;;;12.05;8.75;;;3.10;99.90;;;;;;5032585;28;20136;-74
2023/12/07 05:47:36;;;;;;;11.57;8.40;;;3.10;99.90;;;;;;5032492;28;20046;-72
2023/12/07 05:50:03;;;;;;;15.68;9.40;;;3.10;99.90;;;;;;5031466;28;20514;-72
2023/12/07 05:52:29;;;;;;;11.43;8.65;;;3.10;99.90;;;;;;5031381;28;20111;-72
2023/12/07 05:54:55;;;;;;;10.40;8.65;;;3.10;99.90;;;;;;5032689;28;20056;-73
2023/12/07 05:57:20;;;;;;;11.43;8.95;;;3.10;99.90;;;;;;5032322;28;20041;-72
2023/12/07 05:59:46;;;;;;;11.13;8.63;;;3.00;99.90;;;;;;5031822;28;20483;-72
2023/12/07 06:02:12;;;;;;;9.98;8.60;;;3.10;99.90;;;;;;5033545;28;20053;-72
2023/12/07 06:04:38;;;;;;;12.52;8.65;;;3.00;99.90;;;;;;5036999;28;20537;-73
2023/12/07 06:07:03;;;;;;;11.85;9.45;;;3.00;99.90;;;;;;5036625;28;20092;-72
2023/12/07 06:09:29;;;;;;;11.32;8.88;;;3.10;99.90;;;;;;5035941;28;20164;-73
2023/12/07 06:11:55;;;;;;;11.18;9.23;;;3.10;99.90;;;;;;5036446;28;20129;-73
2023/12/07 06:14:22;;;;;;;12.32;9.82;;;3.10;99.90;;;;;;5035177;28;20056;-72
2023/12/07 06:16:49;;;;;;;13.98;10.18;;;3.10;99.90;;;;;;5036444;28;20053;-73
2023/12/07 06:19:14;;;;;;;13.10;10.15;;;3.30;99.90;;;;;;5036133;28;20396;-73
2023/12/07 06:21:40;;;;;;;11.40;9.90;;;3.10;99.90;;;;;;5036585;28;20064;-74
2023/12/07 06:24:07;;;;;;;13.93;9.95;;;3.00;99.90;;;;;;5002827;28;20557;-73
2023/12/07 06:26:32;;;;;;;12.80;10.07;;;3.00;99.90;;;;;;5035325;28;20056;-73
2023/12/07 06:28:58;;;;;;;16.23;11.43;;;3.00;99.90;;;;;;5018962;28;20045;-73
2023/12/07 06:31:24;;;;;;;15.80;11.02;;;3.00;99.90;;;;;;5035150;28;20132;-73
2023/12/07 06:33:50;;;;;;;13.57;10.55;;;3.00;99.90;;;;;;5035271;28;20378;-73
2023/12/07 06:36:20;;;;;;;12.93;10.50;;;3.40;99.90;;;;;;5018232;28;20080;-73
2023/12/07 06:38:46;;;;;;;14.38;10.68;;;3.00;99.90;;;;;;5035936;28;20067;-72
2023/12/07 06:41:12;;;;;;;14.93;10.60;;;3.00;99.90;;;;;;5035504;28;20553;-73
2023/12/07 06:43:38;;;;;;;13.60;10.20;;;3.00;99.90;;;;;;5035306;28;20049;-74
2023/12/07 06:46:04;;;;;;;14.82;10.85;;;3.00;99.90;;;;;;5035569;28;20124;-74
2023/12/07 06:48:29;;;;;;;12.00;9.88;;;3.00;99.90;;;;;;5034447;28;20056;-74
2023/12/07 06:50:55;;;;;;;14.60;10.05;;;3.00;99.90;;;;;;5035061;28;20077;-74
2023/12/07 06:53:21;;;;;;;14.30;11.00;;;3.00;99.90;;;;;;5035479;28;20045;-74
2023/12/07 06:55:47;;;;;;;13.63;10.18;;;3.00;99.90;;;;;;5036297;28;20376;-74
2023/12/07 06:58:12;;;;;;;12.38;10.15;;;3.00;99.90;;;;;;5035463;28;20516;-74
2023/12/07 07:00:38;;;;;;;13.15;10.38;;;3.00;99.90;;;;;;5035289;28;20045;-73
2023/12/07 07:03:04;;;;;;;13.93;10.45;;;3.00;99.90;;;;;;5034824;28;20045;-73
2023/12/07 07:05:30;;;;;;;12.90;9.23;;;3.00;99.90;;;;;;5035327;28;20049;-72
2023/12/07 07:07:55;;;;;;;12.82;9.75;;;3.10;99.90;;;;;;5018136;28;20386;-73
2023/12/07 07:10:21;;;;;;;15.10;10.23;;;3.10;99.90;;;;;;5033831;28;20045;-73
2023/12/07 07:12:47;;;;;;;14.55;10.82;;;3.10;99.90;;;;;;5035113;28;20048;-73
2023/12/07 07:15:13;;;;;;;16.70;11.15;;;3.10;99.90;;;;;;5035167;28;20045;-73
2023/12/07 07:17:38;;;;;;;17.63;10.80;;;3.10;99.90;;;;;;5033694;28;20045;-72
2023/12/07 07:20:05;;;;;;;14.32;10.23;;;3.10;99.90;;;;;;5035322;28;20363;-73
2023/12/07 07:22:31;;;;;;;13.75;10.20;;;3.10;99.90;;;;;;5016998;28;20056;-73
2023/12/07 07:24:56;;;;;;;14.70;10.30;;;3.10;99.90;;;;;;5035461;28;20046;-73
2023/12/07 07:27:22;;;;;;;13.70;10.30;;;3.70;99.90;;;;;;5017130;28;20041;-73
2023/12/07 07:29:48;;;;;;;13.07;10.65;;;3.10;99.90;;;;;;5034231;28;20103;-74
2023/12/07 07:32:13;;;;;;;14.73;11.18;;;3.10;99.90;;;;;;5035291;28;20049;-73
2023/12/07 07:34:39;;;;;;;13.73;10.90;;;3.10;99.90;;;;;;5033647;28;20044;-74
2023/12/07 07:37:06;;;;;;;14.48;10.60;;;3.20;99.90;;;;;;5035175;28;20372;-74
2023/12/07 07:39:32;;;;;;;15.07;10.85;;;3.20;99.90;;;;;;5034244;28;20151;-73
2023/12/07 07:41:59;;;;;;;13.65;10.90;;;3.20;99.90;;;;;;5035028;28;20125;-74
2023/12/07 07:44:25;;;;;;;14.00;10.23;;;3.20;99.90;;;;;;5034380;28;20053;-76
2023/12/07 07:46:51;;;;;;;13.82;10.30;;;3.30;99.90;;;;;;5034005;28;20086;-75
2023/12/07 07:49:16;;;;;;;19.52;10.68;;;3.20;99.90;;;;;;5034129;28;20083;-75
2023/12/07 07:51:42;;;;;;;15.15;9.95;;;3.30;99.90;;;;;;5032980;28;20063;-75
2023/12/07 07:54:08;;;;;;;15.80;10.43;;;3.30;99.90;;;;;;5033424;28;20087;-75
2023/12/07 07:56:33;;;;;;;17.27;11.07;;;3.30;99.90;;;;;;5032986;28;20041;-75
2023/12/07 07:59:00;;;;;;;13.15;10.57;;;3.60;99.90;;;;;;5017106;28;20046;-75
2023/12/07 08:01:26;;;;;;;14.30;11.52;;;3.30;99.90;;;;;;5034139;28;20089;-74
2023/12/07 08:03:52;;;;;;;15.30;11.45;;;3.30;99.90;;;;;;5033220;28;20376;-73
2023/12/07 08:06:18;;;;;;;15.77;10.80;;;3.30;99.90;;;;;;5034026;28;20094;-70
2023/12/07 08:08:44;;;;;;;15.55;11.02;;;3.30;99.90;;;;;;5032428;28;20460;-70
2023/12/07 08:11:10;;;;;;;14.07;10.80;;;3.30;99.90;;;;;;5033777;28;20045;-71
2023/12/07 08:13:35;;;;;;;13.98;10.98;;;3.40;99.90;;;;;;5032891;28;20050;-71
2023/12/07 08:16:01;;;;;;;13.70;10.93;;;3.30;99.90;;;;;;5034049;28;20053;-71
2023/12/07 08:18:27;;;;;;;17.35;11.40;;;3.40;99.90;;;;;;5032466;28;20049;-71
2023/12/07 08:20:53;;;;;;;16.73;11.57;;;3.40;99.90;;;;;;5034022;28;20085;-70
2023/12/07 08:23:18;;;;;;;18.85;11.95;;;3.40;99.90;;;;;;5034010;28;20088;-70
2023/12/07 08:25:44;;;;;;;14.65;10.80;;;3.40;99.90;;;;;;5015210;28;20049;-70
2023/12/07 08:28:10;;;;;;;15.68;11.27;;;3.40;99.90;;;;;;5034002;28;20526;-71
2023/12/07 08:30:36;;;;;;;15.38;11.30;;;3.40;99.90;;;;;;5032564;28;20049;-71
2023/12/07 08:33:02;;;;;;;16.05;11.77;;;3.50;99.90;;;;;;5033718;28;20048;-70
2023/12/07 08:35:28;;;;;;;15.80;12.00;;;3.50;99.90;;;;;;5032103;28;20045;-74
2023/12/07 08:37:53;;;;;;;17.15;12.10;;;3.50;99.90;;;;;;5033312;28;20045;-70
2023/12/07 08:40:19;;;;;;;16.98;12.05;;;3.50;99.90;;;;;;5033978;28;20537;-70
2023/12/07 08:42:46;;;;;;;17.95;11.77;;;3.60;99.90;;;;;;5032537;28;20114;-70
2023/12/07 08:45:13;;;;;;;15.63;11.52;;;3.50;99.90;;;;;;5033116;28;20045;-70
2023/12/07 08:47:39;;;;;;;16.98;12.45;;;3.60;99.90;;;;;;5033337;28;20049;-70
2023/12/07 08:50:07;;;;;;;17.45;11.80;;;3.50;99.90;;;;;;5032510;28;20184;-70
2023/12/07 08:52:33;;;;;;;17.83;11.77;;;3.60;99.90;;;;;;5033377;28;20348;-71
2023/12/07 08:54:59;;;;;;;15.65;11.68;;;3.60;99.90;;;;;;5033231;28;20068;-70
2023/12/07 08:57:25;;;;;;;21.00;12.80;;;3.60;99.90;;;;;;5033005;28;20041;-72
2023/12/07 08:59:51;;;;;;;17.17;12.10;;;3.60;99.90;;;;;;5032847;28;20709;-70
2023/12/07 09:02:16;;;;;;;15.45;10.75;;;3.60;99.90;;;;;;5033382;28;20131;-70
2023/12/07 09:04:42;;;;;;;16.48;12.05;;;3.60;99.90;;;;;;5031568;28;20064;-71
2023/12/07 09:07:09;;;;;;;17.15;12.50;;;3.60;99.90;;;;;;5033157;28;20096;-71
2023/12/07 09:09:35;;;;;;;15.73;12.00;;;3.60;99.90;;;;;;5031355;28;20490;-71
2023/12/07 09:12:01;;;;;;;16.33;12.43;;;3.60;99.90;;;;;;5032191;28;20045;-71
2023/12/07 09:14:26;;;;;;;15.60;11.73;;;3.70;99.90;;;;;;5015743;28;20064;-72
2023/12/07 09:16:54;;;;;;;16.75;12.50;;;3.70;99.90;;;;;;5032811;28;20105;-71
2023/12/07 09:19:20;;;;;;;17.77;12.55;;;3.80;99.90;;;;;;5031767;28;20483;-72
2023/12/07 09:21:45;;;;;;;18.65;13.38;;;3.80;99.90;;;;;;5031616;28;20045;-71
2023/12/07 09:24:11;;;;;;;19.92;13.45;;;3.90;99.90;;;;;;5032355;28;20095;-71
2023/12/07 09:26:37;;;;;;;15.57;11.73;;;3.90;99.90;;;;;;5015256;28;20052;-73
2023/12/07 09:29:02;;;;;;;16.58;12.38;;;3.90;99.90;;;;;;5033228;28;20033;-71
2023/12/07 09:31:28;;;;;;;17.55;12.93;;;3.90;99.90;;;;;;5031886;28;20042;-71
2023/12/07 09:33:54;;;;;;;18.65;11.95;;;3.90;99.90;;;;;;5031256;28;20394;-71
2023/12/07 09:36:21;;;;;;;17.27;12.57;;;4.00;99.90;;;;;;5031594;28;20394;-72
2023/12/07 09:38:47;;;;;;;23.25;13.73;;;3.90;99.90;;;;;;5015429;28;20093;-71
2023/12/07 09:41:13;;;;;;;20.77;13.13;;;3.90;99.90;;;;;;5033102;28;20163;-71
2023/12/07 09:43:39;;;;;;;18.85;13.38;;;4.00;99.90;;;;;;5032441;28;20045;-71
2023/12/07 09:46:06;;;;;;;18.52;12.90;;;4.00;99.90;;;;;;5032803;28;20045;-70
2023/12/07 09:48:32;;;;;;;18.65;12.65;;;4.00;99.90;;;;;;5032979;28;20045;-70
2023/12/07 09:51:00;;;;;;;18.05;12.70;;;4.10;99.90;;;;;;5032956;28;20283;-70
2023/12/07 09:53:29;;;;;;;20.45;13.85;;;4.10;99.90;;;;;;5032906;28;20045;-70
2023/12/07 09:55:54;;;;;;;20.27;13.45;;;4.30;99.90;;;;;;5029150;28;20107;-71
2023/12/07 09:58:20;;;;;;;22.77;14.52;;;4.30;99.90;;;;;;5031653;28;20128;-72
2023/12/07 10:00:47;;;;;;;21.30;13.90;;;4.10;99.90;;;;;;5032205;28;20052;-71
2023/12/07 10:03:23;;;;;;;18.17;14.70;;;4.20;99.90;;;;;;5031967;28;20085;-70
2023/12/07 10:05:57;;;;;;;19.15;13.93;;;4.20;99.90;;;;;;5031915;28;20060;-70
2023/12/07 10:08:35;;;;;;;21.33;14.32;;;4.20;99.90;;;;;;5031585;28;20038;-70
2023/12/07 10:11:06;;;;;;;19.13;14.05;;;4.20;99.90;;;;;;5030838;28;20687;-71
2023/12/07 10:13:35;;;;;;;19.77;13.57;;;4.20;99.90;;;;;;5031890;28;20042;-72
2023/12/07 10:16:15;;;;;;;19.55;13.13;;;4.20;99.90;;;;;;5031507;28;20087;-71
2023/12/07 10:18:41;;;;;;;21.67;14.60;;;4.20;99.90;;;;;;5032258;28;20045;-72
2023/12/07 10:21:09;;;;;;;21.27;13.90;;;4.20;99.90;;;;;;5031765;28;20053;-71
2023/12/07 10:23:38;;;;;;;26.40;13.50;;;4.20;99.90;;;;;;5031125;28;20579;-70
2023/12/07 10:26:07;;;;;;;21.08;14.32;;;4.20;99.90;;;;;;5031074;28;20053;-70
2023/12/07 10:28:37;;;;;;;19.05;14.30;;;4.20;99.90;;;;;;5031950;28;20037;-70
2023/12/07 10:31:03;;;;;;;19.20;12.77;;;4.10;99.90;;;;;;5030086;28;20060;-70
2023/12/07 10:33:28;;;;;;;19.20;14.10;;;4.10;99.90;;;;;;5031363;28;20041;-70
2023/12/07 10:35:54;;;;;;;22.05;14.00;;;4.10;99.90;;;;;;5027913;28;20049;-70
2023/12/07 10:38:21;;;;;;;19.45;13.88;;;4.10;99.90;;;;;;5031240;28;20099;-70
2023/12/07 10:40:48;;;;;;;20.85;14.48;;;4.10;99.90;;;;;;5029122;28;20065;-70
2023/12/07 10:43:15;;;;;;;18.30;13.50;;;4.20;99.90;;;;;;5029701;28;20056;-70
2023/12/07 10:45:43;;;;;;;21.63;14.65;;;4.20;99.90;;;;;;5030500;28;20046;-69
2023/12/07 10:48:10;;;;;;;19.10;13.80;;;4.10;99.90;;;;;;5031743;28;20037;-69
2023/12/07 10:50:45;;;;;;;20.83;14.48;;;4.10;99.90;;;;;;5035564;28;20092;-70
2023/12/07 10:53:40;;;;;;;24.38;13.30;;;4.20;99.90;;;;;;5035664;28;20049;-70
2023/12/07 10:56:10;;;;;;;17.52;13.20;;;4.30;99.90;;;;;;5034825;28;20494;-70
2023/12/07 10:58:36;;;;;;;12.38;8.25;;;4.30;99.90;;;;;;5035505;28;20064;-70
2023/12/07 11:01:02;;;;;;;17.48;11.95;;;4.30;99.90;;;;;;5034210;28;20482;-70
2023/12/07 11:03:32;;;;;;;16.02;11.73;;;4.40;99.90;;;;;;5033893;28;20491;-70
2023/12/07 11:05:58;;;;;;;18.17;12.40;;;4.40;99.90;;;;;;5034942;28;20089;-70
2023/12/07 11:08:23;;;;;;;17.33;12.05;;;4.40;99.90;;;;;;5035821;28;20107;-69
2023/12/07 11:11:16;;;;;;;22.08;13.32;;;4.50;99.90;;;;;;5034053;28;20095;-70
2023/12/07 11:14:17;;;;;;;17.90;12.52;;;4.50;99.90;;;;;;5034599;28;20049;-70
2023/12/07 11:16:46;;;;;;;16.77;11.85;;;4.60;99.90;;;;;;5034582;28;20061;-70
2023/12/07 11:19:44;;;;;;;16.33;10.50;;;4.60;99.90;;;;;;5035149;28;20033;-69
2023/12/07 11:22:11;;;;;;;17.13;12.05;;;4.70;99.90;;;;;;5034732;28;20084;-70
2023/12/07 11:24:37;;;;;;;13.13;10.05;;;4.70;99.90;;;;;;5033692;28;20053;-70
2023/12/07 11:27:04;;;;;;;17.02;12.13;;;4.80;99.90;;;;;;5033066;28;20148;-70
2023/12/07 11:29:30;;;;;;;16.98;12.07;;;4.80;99.90;;;;;;5034865;28;20037;-70
2023/12/07 11:32:04;;;;;;;16.80;11.05;;;4.80;99.90;;;;;;5033896;28;20136;-69
2023/12/07 11:34:37;;;;;;;18.98;11.75;;;4.80;99.90;;;;;;5034053;28;20057;-70
2023/12/07 11:37:03;;;;;;;18.53;12.17;;;4.80;99.90;;;;;;5034443;28;20056;-70
2023/12/07 11:39:34;;;;;;;15.57;10.85;;;4.80;99.90;;;;;;5034522;28;21172;-70
2023/12/07 11:42:08;;;;;;;16.25;11.32;;;4.80;99.90;;;;;;5034142;28;20068;-70
2023/12/07 11:44:37;;;;;;;14.55;10.75;;;4.90;99.90;;;;;;5033979;28;20057;-70
2023/12/07 11:47:04;;;;;;;15.40;11.43;;;4.90;99.90;;;;;;5033847;28;20046;-70
2023/12/07 11:49:31;;;;;;;19.83;11.23;;;5.00;99.90;;;;;;5032882;28;20060;-70
2023/12/07 11:51:57;;;;;;;18.20;11.48;;;5.00;99.90;;;;;;5032800;28;20120;-69
2023/12/07 11:54:23;;;;;;;20.67;11.57;;;5.00;99.90;;;;;;5034147;28;20410;-70
2023/12/07 11:56:56;;;;;;;17.83;12.18;;;5.00;99.90;;;;;;5032902;28;20045;-69
2023/12/07 11:59:24;;;;;;;16.13;10.30;;;4.90;99.90;;;;;;5031191;28;20040;-69
2023/12/07 12:01:51;;;;;;;18.20;11.55;;;5.10;99.90;;;;;;5034485;28;20357;-69
2023/12/07 12:04:18;;;;;;;17.27;11.50;;;5.00;99.90;;;;;;5032719;28;20053;-69
2023/12/07 12:06:44;;;;;;;15.77;10.43;;;5.00;99.90;;;;;;5033553;28;20137;-69
2023/12/07 12:09:17;;;;;;;16.77;11.73;;;5.00;99.90;;;;;;5033614;28;20045;-71
2023/12/07 12:11:47;;;;;;;17.58;11.73;;;5.00;99.90;;;;;;5033173;28;20121;-70
2023/12/07 12:14:17;;;;;;;18.00;11.65;;;5.00;99.90;;;;;;5032368;28;20399;-69
2023/12/07 12:16:46;;;;;;;21.05;12.50;;;5.00;99.90;;;;;;5032190;28;20111;-69
2023/12/07 12:19:15;;;;;;;21.30;11.70;;;5.00;99.90;;;;;;5015908;28;20053;-69
2023/12/07 12:21:43;;;;;;;17.92;10.23;;;5.00;99.90;;;;;;5033040;28;20400;-71
2023/12/07 12:24:10;;;;;;;15.60;10.63;;;5.00;99.90;;;;;;5033317;28;20457;-70
2023/12/07 12:26:38;;;;;;;16.08;10.73;;;5.00;99.90;;;;;;5033131;28;20048;-69
2023/12/07 12:29:05;;;;;;;16.02;12.38;;;5.00;99.90;;;;;;5033040;28;20138;-70
2023/12/07 12:31:31;;;;;;;16.02;10.52;;;5.00;99.90;;;;;;5034015;28;20142;-70
2023/12/07 12:33:57;;;;;;;17.88;11.10;;;5.00;99.90;;;;;;5034348;28;20495;-71
2023/12/07 12:36:23;;;;;;;18.55;12.35;;;5.00;99.90;;;;;;5033929;28;20345;-69
2023/12/07 12:38:50;;;;;;;14.80;10.15;;;5.00;99.90;;;;;;5032865;28;20162;-69